createdAt,value
2019-04-26T00:00:58.239Z,18.10
2019-04-26T00:03:27.492Z,18.20
2019-04-26T00:05:54.366Z,18.10
2019-04-26T00:08:22.137Z,18.00
2019-04-26T00:11:03.057Z,17.90
2019-04-26T00:13:48.033Z,17.90
2019-04-26T00:16:16.807Z,17.80
2019-04-26T00:18:43.582Z,17.70
2019-04-26T00:21:10.632Z,17.70
2019-04-26T00:23:38.490Z,17.70
2019-04-26T00:26:06.359Z,17.80
2019-04-26T00:28:32.999Z,17.70
2019-04-26T00:30:59.786Z,17.60
2019-04-26T00:33:26.467Z,17.60
2019-04-26T00:35:53.239Z,17.50
2019-04-26T00:38:20.425Z,17.50
2019-04-26T00:40:48.061Z,17.50
2019-04-26T00:43:16.362Z,17.40
2019-04-26T00:45:43.664Z,17.40
2019-04-26T00:48:12.528Z,17.40
2019-04-26T00:50:40.581Z,17.30
2019-04-26T00:53:08.261Z,17.30
2019-04-26T00:55:35.310Z,17.40
2019-04-26T00:58:02.690Z,17.30
2019-04-26T01:00:29.832Z,17.30
2019-04-26T01:02:58.313Z,17.30
2019-04-26T01:05:25.579Z,17.10
2019-04-26T01:07:54.068Z,17.20
2019-04-26T01:10:21.605Z,17.00
2019-04-26T01:12:48.366Z,17.10
2019-04-26T01:15:17.026Z,17.10
2019-04-26T01:17:44.969Z,17.00
2019-04-26T01:20:12.365Z,17.20
2019-04-26T01:22:46.166Z,17.10
2019-04-26T01:25:39.657Z,17.00
2019-04-26T01:28:10.044Z,17.00
2019-04-26T01:30:37.587Z,16.80
2019-04-26T01:33:06.734Z,16.80
2019-04-26T01:35:33.698Z,16.90
2019-04-26T01:38:04.250Z,16.90
2019-04-26T01:40:32.838Z,16.80
2019-04-26T01:43:18.419Z,16.80
2019-04-26T01:46:06.372Z,16.80
2019-04-26T01:48:46.237Z,16.80
2019-04-26T01:51:27.264Z,16.80
2019-04-26T01:53:54.261Z,16.70
2019-04-26T01:56:25.151Z,16.80
2019-04-26T01:58:51.999Z,16.70
2019-04-26T02:01:22.705Z,16.70
2019-04-26T02:03:50.133Z,16.80
2019-04-26T02:06:25.290Z,16.70
2019-04-26T02:08:45.342Z,16.60
2019-04-26T02:11:12.107Z,16.70
2019-04-26T02:13:38.992Z,16.70
2019-04-26T02:16:05.526Z,16.60
2019-04-26T02:18:33.549Z,16.50
2019-04-26T02:21:18.100Z,16.50
2019-04-26T02:23:50.164Z,16.50
2019-04-26T02:26:34.633Z,16.50
2019-04-26T02:29:14.334Z,16.50
2019-04-26T02:31:46.369Z,16.60
2019-04-26T02:34:13.854Z,16.50
2019-04-26T02:36:56.389Z,16.50
2019-04-26T02:39:18.668Z,16.50
2019-04-26T02:41:46.491Z,16.40
2019-04-26T02:44:15.606Z,16.50
2019-04-26T02:46:54.359Z,16.50
2019-04-26T02:49:27.363Z,16.40
2019-04-26T02:51:58.149Z,16.50
2019-04-26T02:54:56.350Z,16.50
2019-04-26T02:57:28.052Z,16.40
2019-04-26T02:59:59.678Z,16.40
2019-04-26T03:02:30.212Z,16.60
2019-04-26T03:04:59.735Z,16.40
2019-04-26T03:07:39.084Z,16.50
2019-04-26T03:10:08.190Z,16.40
2019-04-26T03:12:39.542Z,16.40
2019-04-26T03:15:19.035Z,16.30
2019-04-26T03:17:51.370Z,16.40
2019-04-26T03:20:23.857Z,16.20
2019-04-26T03:23:18.414Z,16.30
2019-04-26T03:26:14.549Z,16.20
2019-04-26T03:29:00.200Z,16.20
2019-04-26T03:31:54.418Z,16.20
2019-04-26T03:34:39.322Z,16.20
2019-04-26T03:37:21.496Z,16.20
2019-04-26T03:40:02.842Z,16.10
2019-04-26T03:42:51.899Z,16.20
2019-04-26T03:45:31.255Z,16.30
2019-04-26T03:48:01.731Z,16.30
2019-04-26T03:50:48.149Z,16.30
2019-04-26T03:53:18.709Z,16.10
2019-04-26T03:55:52.199Z,16.10
2019-04-26T03:58:30.844Z,16.10
2019-04-26T04:01:07.907Z,16.00
2019-04-26T04:03:58.669Z,16.00
2019-04-26T04:06:30.038Z,16.20
2019-04-26T04:09:00.483Z,16.00
2019-04-26T04:11:37.506Z,16.20
2019-04-26T04:14:11.362Z,16.10
2019-04-26T04:16:55.800Z,16.10
2019-04-26T04:19:55.073Z,16.10
2019-04-26T04:22:26.553Z,16.10
2019-04-26T04:25:08.836Z,16.20
2019-04-26T04:27:41.829Z,16.10
2019-04-26T04:30:22.167Z,16.30
2019-04-26T04:33:09.651Z,16.20
2019-04-26T04:35:47.881Z,16.20
2019-04-26T04:38:22.922Z,16.20
2019-04-26T04:41:13.797Z,16.30
2019-04-26T04:43:48.709Z,16.20
2019-04-26T04:46:35.500Z,16.20
2019-04-26T04:49:22.903Z,16.10
2019-04-26T04:51:57.716Z,16.10
2019-04-26T04:54:28.287Z,16.20
2019-04-26T04:57:07.814Z,16.20
2019-04-26T04:59:59.673Z,16.10
2019-04-26T05:02:50.718Z,16.20
2019-04-26T05:05:28.945Z,16.20
2019-04-26T05:08:16.370Z,16.30
2019-04-26T05:10:57.265Z,16.30
2019-04-26T05:13:30.512Z,16.40
2019-04-26T05:16:33.132Z,16.40
2019-04-26T05:19:25.550Z,16.30
2019-04-26T05:22:07.848Z,16.30
2019-04-26T05:24:38.415Z,16.40
2019-04-26T05:27:25.809Z,16.30
2019-04-26T05:30:01.050Z,16.40
2019-04-26T05:32:53.153Z,16.40
2019-04-26T05:35:40.808Z,16.50
2019-04-26T05:38:20.253Z,16.50
2019-04-26T05:40:51.515Z,16.70
2019-04-26T05:43:56.004Z,16.90
2019-04-26T05:46:55.803Z,16.90
2019-04-26T05:49:51.788Z,17.20
2019-04-26T05:52:43.420Z,17.10
2019-04-26T05:55:22.067Z,17.30
2019-04-26T05:58:03.015Z,17.30
2019-04-26T06:00:41.009Z,17.30
2019-04-26T06:03:28.710Z,17.50
2019-04-26T06:06:19.353Z,17.30
2019-04-26T06:08:57.482Z,17.40
2019-04-26T06:11:35.672Z,17.30
2019-04-26T06:14:16.969Z,17.40
2019-04-26T06:17:24.532Z,17.50
2019-04-26T06:20:23.218Z,17.50
2019-04-26T06:22:53.687Z,17.70
2019-04-26T06:25:40.977Z,17.70
2019-04-26T06:28:11.317Z,17.90
2019-04-26T06:30:45.662Z,17.90
2019-04-26T06:33:34.578Z,18.00
2019-04-26T06:36:06.428Z,18.00
2019-04-26T06:38:54.336Z,18.00
2019-04-26T06:41:59.238Z,18.00
2019-04-26T06:44:31.590Z,18.30
2019-04-26T06:47:04.086Z,18.20
2019-04-26T06:49:50.883Z,18.30
2019-04-26T06:52:21.258Z,18.50
2019-04-26T06:54:57.781Z,18.60
2019-04-26T06:58:13.572Z,18.70
2019-04-26T07:01:01.113Z,18.60
2019-04-26T07:03:55.427Z,18.70
2019-04-26T07:06:38.191Z,18.60
2019-04-26T07:09:11.808Z,18.90
2019-04-26T07:12:22.218Z,18.80
2019-04-26T07:15:28.830Z,19.10
2019-04-26T07:18:16.201Z,19.20
2019-04-26T07:20:51.295Z,19.00
2019-04-26T07:23:26.087Z,19.30
2019-04-26T07:26:01.696Z,19.50
2019-04-26T07:28:48.050Z,19.60
2019-04-26T07:31:27.226Z,19.50
2019-04-26T07:34:19.565Z,19.90
2019-04-26T07:37:09.409Z,20.10
2019-04-26T07:39:50.431Z,20.30
2019-04-26T07:42:54.918Z,20.60
2019-04-26T07:45:57.157Z,20.70
2019-04-26T07:48:51.548Z,20.60
2019-04-26T07:51:28.710Z,20.60
2019-04-26T07:54:22.440Z,20.40
2019-04-26T07:57:41.337Z,20.50
2019-04-26T08:00:15.441Z,20.50
2019-04-26T08:03:13.005Z,20.20
2019-04-26T08:05:48.506Z,20.60
2019-04-26T08:08:18.978Z,20.70
2019-04-26T08:11:12.949Z,20.70
2019-04-26T08:13:43.481Z,20.70
2019-04-26T08:16:14.703Z,20.40
2019-04-26T08:18:47.090Z,20.30
2019-04-26T08:21:22.420Z,20.40
2019-04-26T08:23:56.554Z,20.50
2019-04-26T08:26:26.227Z,20.40
2019-04-26T08:28:56.657Z,20.30
2019-04-26T08:31:27.881Z,20.30
2019-04-26T08:34:00.258Z,20.30
2019-04-26T08:36:31.920Z,20.40
2019-04-26T08:39:00.796Z,20.40
2019-04-26T08:41:28.822Z,20.40
2019-04-26T08:44:05.013Z,20.40
2019-04-26T08:46:56.995Z,20.20
2019-04-26T08:49:27.330Z,20.30
2019-04-26T08:51:57.551Z,20.20
2019-04-26T08:54:28.143Z,20.40
2019-04-26T08:57:05.572Z,20.60
2019-04-26T08:59:38.894Z,20.70
2019-04-26T09:02:29.255Z,20.50
2019-04-26T09:05:18.080Z,20.30
2019-04-26T09:07:48.017Z,20.50
2019-04-26T09:10:15.486Z,20.60
2019-04-26T09:12:46.525Z,20.30
2019-04-26T09:15:15.894Z,20.40
2019-04-26T09:17:42.534Z,20.50
2019-04-26T09:20:09.621Z,20.60
2019-04-26T09:22:56.223Z,20.40
2019-04-26T09:25:25.611Z,20.50
2019-04-26T09:27:54.092Z,20.30
2019-04-26T09:30:34.178Z,20.20
2019-04-26T09:33:05.397Z,20.10
2019-04-26T09:35:32.037Z,20.20
2019-04-26T09:37:58.622Z,20.10
2019-04-26T09:40:25.293Z,20.30
2019-04-26T09:42:53.785Z,20.20
2019-04-26T09:45:39.018Z,20.00
2019-04-26T09:48:13.368Z,20.30
2019-04-26T09:50:41.933Z,20.30
2019-04-26T09:53:09.481Z,20.30
2019-04-26T09:55:36.260Z,20.40
2019-04-26T09:58:03.601Z,20.10
2019-04-26T10:00:31.356Z,20.10
2019-04-26T10:02:58.093Z,20.20
2019-04-26T10:05:24.881Z,20.10
2019-04-26T10:07:53.314Z,20.20
2019-04-26T10:10:22.977Z,20.10
2019-04-26T10:13:01.178Z,20.10
2019-04-26T10:15:30.654Z,20.20
2019-04-26T10:17:58.277Z,20.20
2019-04-26T10:20:24.948Z,20.30
2019-04-26T10:22:53.186Z,20.50
2019-04-26T10:25:21.427Z,20.50
2019-04-26T10:27:48.114Z,20.60
2019-04-26T10:30:16.955Z,20.60
2019-04-26T10:32:43.833Z,20.40
2019-04-26T10:35:12.077Z,20.50
2019-04-26T10:37:44.035Z,20.70
2019-04-26T10:40:09.813Z,20.70
2019-04-26T10:42:36.482Z,20.70
2019-04-26T10:45:10.383Z,20.90
2019-04-26T10:47:38.388Z,20.90
2019-04-26T10:50:06.524Z,20.80
2019-04-26T10:52:45.685Z,21.10
2019-04-26T10:55:22.661Z,21.10
2019-04-26T10:58:00.983Z,21.00
2019-04-26T11:00:38.260Z,20.90
2019-04-26T11:03:06.152Z,20.90
2019-04-26T11:05:32.862Z,21.00
2019-04-26T11:07:59.438Z,21.00
2019-04-26T11:10:49.138Z,21.20
2019-04-26T11:13:15.813Z,21.10
2019-04-26T11:15:42.962Z,21.00
2019-04-26T11:18:09.699Z,21.10
2019-04-26T11:20:36.378Z,20.80
2019-04-26T11:23:08.264Z,21.00
2019-04-26T11:25:33.269Z,21.00
2019-04-26T11:27:59.944Z,20.80
2019-04-26T11:30:28.188Z,21.10
2019-04-26T11:32:55.658Z,21.20
2019-04-26T11:35:22.202Z,21.00
2019-04-26T11:37:50.743Z,21.00
2019-04-26T11:40:17.628Z,20.80
2019-04-26T11:42:47.253Z,20.50
2019-04-26T11:45:16.195Z,20.40
2019-04-26T11:47:55.435Z,20.30
2019-04-26T11:50:12.544Z,20.30
2019-04-26T11:52:40.412Z,20.30
2019-04-26T11:55:08.647Z,20.10
2019-04-26T11:57:35.305Z,20.10
2019-04-26T12:00:06.656Z,20.00
2019-04-26T12:02:37.865Z,20.10
2019-04-26T12:05:17.801Z,20.30
2019-04-26T12:07:59.896Z,20.30
2019-04-26T12:10:27.558Z,20.40
2019-04-26T12:13:05.148Z,20.40
2019-04-26T12:15:30.190Z,20.20
2019-04-26T12:17:58.883Z,20.00
2019-04-26T12:20:22.410Z,19.80
2019-04-26T12:22:50.009Z,19.60
2019-04-26T12:25:17.267Z,19.60
2019-04-26T12:27:44.050Z,19.90
2019-04-26T12:30:13.042Z,19.50
2019-04-26T12:32:41.219Z,19.50
2019-04-26T12:35:07.986Z,19.70
2019-04-26T12:37:36.238Z,19.80
2019-04-26T12:40:07.231Z,19.80
2019-04-26T12:42:33.937Z,19.70
2019-04-26T12:45:19.282Z,19.80
2019-04-26T12:47:49.434Z,19.70
2019-04-26T12:50:16.690Z,19.60
2019-04-26T12:52:43.322Z,19.60
2019-04-26T12:55:13.896Z,19.70
2019-04-26T12:57:40.754Z,19.60
2019-04-26T13:00:10.899Z,19.50
2019-04-26T13:02:37.650Z,19.40
2019-04-26T13:05:05.320Z,19.30
2019-04-26T13:07:33.562Z,19.40
2019-04-26T13:10:20.039Z,19.40
2019-04-26T13:12:49.383Z,19.30
2019-04-26T13:15:40.394Z,19.40
2019-04-26T13:18:07.344Z,19.20
2019-04-26T13:20:35.487Z,19.60
2019-04-26T13:23:02.522Z,19.60
2019-04-26T13:25:40.018Z,19.30
2019-04-26T13:27:57.722Z,19.40
2019-04-26T13:30:32.701Z,19.80
2019-04-26T13:32:54.852Z,19.40
2019-04-26T13:35:21.897Z,19.40
2019-04-26T13:37:50.175Z,19.20
2019-04-26T13:40:16.745Z,19.00
2019-04-26T13:42:43.365Z,19.00
2019-04-26T13:45:13.039Z,19.40
2019-04-26T13:47:58.235Z,19.60
2019-04-26T13:50:29.964Z,19.50
2019-04-26T13:52:57.437Z,19.50
2019-04-26T13:55:25.428Z,19.10
2019-04-26T13:57:55.864Z,19.20
2019-04-26T14:00:24.919Z,19.10
2019-04-26T14:02:51.553Z,19.40
2019-04-26T14:05:18.231Z,19.60
2019-04-26T14:07:44.865Z,19.70
2019-04-26T14:10:11.643Z,19.20
2019-04-26T14:12:38.288Z,18.90
2019-04-26T14:15:08.581Z,19.10
2019-04-26T14:17:34.193Z,19.20
2019-04-26T14:20:00.963Z,19.70
2019-04-26T14:22:31.202Z,19.80
2019-04-26T14:25:00.352Z,20.00
2019-04-26T14:27:29.536Z,19.50
2019-04-26T14:29:56.157Z,19.10
2019-04-26T14:32:24.226Z,19.10
2019-04-26T14:34:51.961Z,19.30
2019-04-26T14:37:19.745Z,19.60
2019-04-26T14:39:50.826Z,19.10
2019-04-26T14:42:14.845Z,19.10
2019-04-26T14:44:49.158Z,19.60
2019-04-26T14:47:14.776Z,19.50
2019-04-26T14:49:40.360Z,19.60
2019-04-26T14:52:06.781Z,19.60
2019-04-26T14:54:33.517Z,19.40
2019-04-26T14:57:07.731Z,19.00
2019-04-26T14:59:47.057Z,18.90
2019-04-26T15:02:35.295Z,18.80
2019-04-26T15:05:10.219Z,19.00
2019-04-26T15:07:48.528Z,19.00
2019-04-26T15:10:10.968Z,18.40
2019-04-26T15:12:46.183Z,18.30
2019-04-26T15:15:07.496Z,18.10
2019-04-26T15:17:35.370Z,17.80
2019-04-26T15:20:04.613Z,17.80
2019-04-26T15:22:32.978Z,17.40
2019-04-26T15:24:59.822Z,17.50
2019-04-26T15:27:27.544Z,17.50
2019-04-26T15:29:57.184Z,17.60
2019-04-26T15:32:24.053Z,17.50
2019-04-26T15:34:51.565Z,17.50
2019-04-26T15:37:24.072Z,17.40
2019-04-26T15:40:02.852Z,17.40
2019-04-26T15:42:58.862Z,17.40
2019-04-26T15:45:21.923Z,17.30
2019-04-26T15:47:58.560Z,17.30
2019-04-26T15:50:27.513Z,17.20
2019-04-26T15:52:55.771Z,17.00
2019-04-26T15:55:22.504Z,17.00
2019-04-26T15:57:49.163Z,17.10
2019-04-26T16:00:16.592Z,17.10
2019-04-26T16:02:44.866Z,16.90
2019-04-26T16:05:12.365Z,16.80
2019-04-26T16:07:39.573Z,16.90
2019-04-26T16:10:06.410Z,16.80
2019-04-26T16:12:33.779Z,16.80
2019-04-26T16:15:02.434Z,16.60
2019-04-26T16:17:29.277Z,16.50
2019-04-26T16:20:00.191Z,16.50
2019-04-26T16:22:25.776Z,16.50
2019-04-26T16:24:53.216Z,16.60
2019-04-26T16:27:20.362Z,16.60
2019-04-26T16:29:58.402Z,16.50
2019-04-26T16:32:24.829Z,16.70
2019-04-26T16:34:52.832Z,16.50
2019-04-26T16:37:22.017Z,16.50
2019-04-26T16:39:48.707Z,16.40
2019-04-26T16:42:16.232Z,16.40
2019-04-26T16:44:45.089Z,16.40
2019-04-26T16:47:13.165Z,16.40
2019-04-26T16:49:42.097Z,16.40
2019-04-26T16:52:08.807Z,16.40
2019-04-26T16:54:35.572Z,16.30
2019-04-26T16:57:06.809Z,16.00
2019-04-26T16:59:32.897Z,16.00
2019-04-26T17:02:02.503Z,15.90
2019-04-26T17:07:01.761Z,15.70
2019-04-26T17:09:29.722Z,15.60
2019-04-26T17:09:50.400Z,15.90
2019-04-26T17:11:54.517Z,15.60
2019-04-26T17:14:24.558Z,15.60
2019-04-26T17:16:53.335Z,15.50
2019-04-26T17:19:20.187Z,15.50
2019-04-26T17:21:52.444Z,15.60
2019-04-26T17:24:38.016Z,15.50
2019-04-26T17:27:12.985Z,15.30
2019-04-26T17:29:39.881Z,15.30
2019-04-26T17:32:09.122Z,15.30
2019-04-26T17:34:36.622Z,15.20
2019-04-26T17:37:09.390Z,15.30
2019-04-26T17:39:33.324Z,15.10
2019-04-26T17:42:01.215Z,15.10
2019-04-26T17:44:28.329Z,15.10
2019-04-26T17:46:57.079Z,14.80
2019-04-26T17:49:27.145Z,14.90
2019-04-26T17:51:57.867Z,14.90
2019-04-26T17:54:40.873Z,14.90
2019-04-26T17:56:50.002Z,14.80
2019-04-26T17:59:32.786Z,14.70
2019-04-26T18:01:51.925Z,14.80
2019-04-26T18:04:14.717Z,14.70
2019-04-26T18:06:45.392Z,14.70
2019-04-26T18:09:18.559Z,14.80
2019-04-26T18:11:38.782Z,14.80
2019-04-26T18:14:06.962Z,14.70
2019-04-26T18:16:35.789Z,14.60
2019-04-26T18:19:05.161Z,14.40
2019-04-26T18:21:37.412Z,14.50
2019-04-26T18:24:04.202Z,14.70
2019-04-26T18:26:30.887Z,14.70
2019-04-26T18:28:57.405Z,14.60
2019-04-26T18:31:28.550Z,14.60
2019-04-26T18:33:54.809Z,14.40
2019-04-26T18:36:21.138Z,14.30
2019-04-26T18:38:48.605Z,14.20
2019-04-26T18:41:16.385Z,14.40
2019-04-26T18:43:44.143Z,14.50
2019-04-26T18:46:12.896Z,14.40
2019-04-26T18:48:41.842Z,14.40
2019-04-26T18:51:11.221Z,14.40
2019-04-26T18:53:39.672Z,14.40
2019-04-26T18:56:08.325Z,14.20
2019-04-26T18:58:37.930Z,14.20
2019-04-26T19:01:05.283Z,14.00
2019-04-26T19:03:33.684Z,13.90
2019-04-26T19:06:02.535Z,13.90
2019-04-26T19:08:29.691Z,13.90
2019-04-26T19:11:01.174Z,14.00
2019-04-26T19:13:37.648Z,13.90
2019-04-26T19:16:10.705Z,13.70
2019-04-26T19:18:44.923Z,13.60
2019-04-26T19:21:16.123Z,13.60
2019-04-26T19:23:42.724Z,13.60
2019-04-26T19:26:13.716Z,13.50
2019-04-26T19:28:41.160Z,13.60
2019-04-26T19:31:08.408Z,13.60
2019-04-26T19:33:35.178Z,13.70
2019-04-26T19:36:03.014Z,13.70
2019-04-26T19:38:30.154Z,13.60
2019-04-26T19:40:57.493Z,13.60
2019-04-26T19:43:32.550Z,13.70
2019-04-26T19:45:58.001Z,13.60
2019-04-26T19:48:26.624Z,13.70
2019-04-26T19:51:02.043Z,13.70
2019-04-26T19:53:39.149Z,13.60
2019-04-26T19:56:17.444Z,13.50
2019-04-26T19:58:50.721Z,13.30
2019-04-26T20:01:16.454Z,13.30
2019-04-26T20:03:47.163Z,13.40
2019-04-26T20:06:14.056Z,13.30
2019-04-26T20:08:44.403Z,13.30
2019-04-26T20:11:12.796Z,13.50
2019-04-26T20:13:39.694Z,13.30
2019-04-26T20:16:06.458Z,13.10
2019-04-26T20:18:38.725Z,13.20
2019-04-26T20:21:02.611Z,13.20
2019-04-26T20:23:33.476Z,13.20
2019-04-26T20:26:00.952Z,13.10
2019-04-26T20:28:29.707Z,13.10
2019-04-26T20:31:05.872Z,13.10
2019-04-26T20:33:31.314Z,13.10
2019-04-26T20:36:01.961Z,13.10
2019-04-26T20:38:28.518Z,12.90
2019-04-26T20:40:55.732Z,13.00
2019-04-26T20:43:26.602Z,13.00
2019-04-26T20:46:10.625Z,13.10
2019-04-26T20:48:25.512Z,13.00
2019-04-26T20:50:51.605Z,12.90
2019-04-26T20:53:18.742Z,12.90
2019-04-26T20:55:47.074Z,12.80
2019-04-26T20:58:13.853Z,12.80
2019-04-26T21:00:53.758Z,12.80
2019-04-26T21:03:23.142Z,12.80
2019-04-26T21:05:46.109Z,12.70
2019-04-26T21:08:12.445Z,12.50
2019-04-26T21:10:39.337Z,12.60
2019-04-26T21:13:07.681Z,12.60
2019-04-26T21:15:35.983Z,12.80
2019-04-26T21:18:04.271Z,12.80
2019-04-26T21:20:34.448Z,12.70
2019-04-26T21:23:02.282Z,12.50
2019-04-26T21:25:32.511Z,12.40
2019-04-26T21:28:02.421Z,12.40
2019-04-26T21:30:33.666Z,12.30
2019-04-26T21:33:03.737Z,12.40
2019-04-26T21:35:49.150Z,12.40
2019-04-26T21:38:20.679Z,12.40
2019-04-26T21:40:56.826Z,12.40
2019-04-26T21:43:20.481Z,12.30
2019-04-26T21:45:47.146Z,12.30
2019-04-26T21:48:13.904Z,12.30
2019-04-26T21:50:40.805Z,12.30
2019-04-26T21:53:07.944Z,12.30
2019-04-26T21:55:38.265Z,12.30
2019-04-26T21:58:05.209Z,12.30
2019-04-26T22:00:49.656Z,12.20
2019-04-26T22:03:16.803Z,12.10
2019-04-26T22:05:49.718Z,12.00
2019-04-26T22:08:16.957Z,11.80
2019-04-26T22:10:46.325Z,12.00
2019-04-26T22:13:15.851Z,11.70
2019-04-26T22:16:01.052Z,11.80
2019-04-26T22:18:35.216Z,11.90
2019-04-26T22:21:06.709Z,11.90
2019-04-26T22:23:47.638Z,11.70
2019-04-26T22:26:16.739Z,11.70
2019-04-26T22:28:44.101Z,11.70
2019-04-26T22:31:13.302Z,11.60
2019-04-26T22:33:40.257Z,11.60
2019-04-26T22:36:06.825Z,11.60
2019-04-26T22:38:33.944Z,11.70
2019-04-26T22:41:00.921Z,11.70
2019-04-26T22:43:30.552Z,11.60
2019-04-26T22:46:03.189Z,11.60
2019-04-26T22:48:36.701Z,11.60
2019-04-26T22:51:04.769Z,11.60
2019-04-26T22:53:32.831Z,11.80
2019-04-26T22:56:01.446Z,11.80
2019-04-26T22:58:28.819Z,11.90
2019-04-26T23:00:58.563Z,11.90
2019-04-26T23:03:24.430Z,11.80
2019-04-26T23:05:53.345Z,11.80
2019-04-26T23:08:23.644Z,11.80
2019-04-26T23:10:53.123Z,11.60
2019-04-26T23:13:25.673Z,11.60
2019-04-26T23:16:00.602Z,11.50
2019-04-26T23:18:46.243Z,11.50
2019-04-26T23:21:25.019Z,11.20
2019-04-26T23:23:53.090Z,11.10
2019-04-26T23:26:19.954Z,10.90
2019-04-26T23:28:46.647Z,10.90
2019-04-26T23:31:13.467Z,10.90
2019-04-26T23:33:40.463Z,10.90
2019-04-26T23:36:07.090Z,10.90
2019-04-26T23:38:37.328Z,10.90
2019-04-26T23:41:07.082Z,11.00
2019-04-26T23:43:32.701Z,11.00
2019-04-26T23:45:59.446Z,11.00
2019-04-26T23:48:27.717Z,11.00
2019-04-26T23:50:54.442Z,11.00
2019-04-26T23:53:21.396Z,10.80
2019-04-26T23:55:48.050Z,10.90
2019-04-26T23:58:14.720Z,10.80
